Flight Track Log - Related Links

Times and Time Zones

All times are in EDT time to prevent confusion due to time zone crossing. See the UAL5848 flight status page for this flight to view local times or setup timezone preferences in your user account.

Time Position Orientation Groundspeed Altitude Reporting Facility
EDT Latitude Longitude Course Direction KTS MPH feet Rate Location/Type
Tue 11:46:56 32.1289 -81.1017 North 194 223 3,700  Level Jacksonville Center
Tue 11:47:55 32.1764 -81.0689 30° Northeast 220 253 5,600 1,664 Climbing Jacksonville Center
Tue 11:48:55 32.2450 -81.0603 North 260 299 7,000 1,636 Climbing Jacksonville Center
Tue 11:49:56 32.3142 -81.0636 358° North 265 305 8,900 1,835 Climbing Jacksonville Center
Tue 11:50:56 32.3939 -81.1039 337° Northwest 265 305 10,700 1,462 Climbing Jacksonville Center
Tue 11:51:00 32.6495 -81.1500 North  Level FlightAware Approximate
Tue 11:51:55 32.4678 -81.1467 334° Northwest 286 329 11,800  Level Jacksonville Center
Tue 11:52:00 32.7393 -81.1451 North  Level FlightAware Approximate
Tue 11:52:56 32.5619 -81.1647 351° North 318 366 12,900  Level Jacksonville Center
Tue 11:53:56 32.6578 -81.1653 360° North 343 395 13,800 908 Climbing Jacksonville Center
Tue 11:54:55 32.7461 -81.2156 334° Northwest 343 395 14,700 958 Climbing Jacksonville Center
Tue 11:55:55 32.8367 -81.2731 332° Northwest 352 405 15,700 992 Climbing Jacksonville Center
Tue 11:56:56 32.9411 -81.2761 359° North 358 412 16,700 1,000 Climbing Jacksonville Center
Tue 11:57:55 33.0453 -81.2494 12° North 364 419 17,700 850 Climbing Jacksonville Center
Tue 11:58:56 33.1514 -81.2228 12° North 369 425 18,400 843 Climbing Jacksonville Center
Tue 11:59:56 33.2517 -81.2383 353° North 360 414 19,400 958 Climbing Jacksonville Center
Tue 12:00:55 33.3464 -81.2936 334° Northwest 354 407 20,300 950 Climbing Jacksonville Center
Tue 12:01:56 33.4408 -81.3469 335° Northwest 366 421 21,300 950 Climbing Jacksonville Center
Tue 12:02:55 33.5292 -81.3900 338° Northwest 381 438 22,200 915 Climbing Jacksonville Center
Tue 12:04:53 33.7283 -81.4961 336° Northwest 368 423 24,000 607 Climbing Atlanta Center
Tue 12:05:53 33.8294 -81.5506 336° Northwest 378 435 24,000  Level Atlanta Center
Tue 12:06:53 33.9267 -81.6053 335° Northwest 406 467 24,000  Level Atlanta Center
Tue 12:07:53 34.0322 -81.6600 337° Northwest 411 473 24,000  Level Atlanta Center
Tue 12:08:53 34.1461 -81.7219 336° Northwest 426 490 24,000  Level Atlanta Center
Tue 12:09:53 34.2578 -81.7819 336° Northwest 431 496 24,000  Level Atlanta Center
Tue 12:10:53 34.3694 -81.8442 335° Northwest 431 496 24,000  Level Atlanta Center
Tue 12:11:53 34.4811 -81.9019 337° Northwest 436 502 24,000  Level Atlanta Center
Tue 12:12:53 34.5947 -81.9644 336° Northwest 441 507 24,000  Level Atlanta Center
Tue 12:13:53 34.7064 -82.0250 336° Northwest 441 507 24,000  Level Atlanta Center
Tue 12:14:53 34.8181 -82.0906 334° Northwest 441 507 24,000  Level Atlanta Center
Tue 12:15:53 34.9317 -82.1539 335° Northwest 447 514 24,000  Level Atlanta Center
Tue 12:16:53 35.0433 -82.2147 336° Northwest 442 509 24,000  Level Atlanta Center
Tue 12:17:53 35.1528 -82.2733 336° Northwest 437 503 24,000  Level Atlanta Center
Tue 12:18:53 35.2642 -82.3369 335° Northwest 437 503 24,000  Level Atlanta Center
Tue 12:19:53 35.3861 -82.4033 336° Northwest 437 503 24,000  Level Atlanta Center
Tue 12:20:53 35.4975 -82.4675 335° Northwest 442 509 24,000  Level Atlanta Center
Tue 12:21:53 35.6108 -82.5317 335° Northwest 442 509 24,000  Level Atlanta Center
Tue 12:22:53 35.7181 -82.5883 337° Northwest 435 501 24,000  Level Atlanta Center
Tue 12:23:53 35.8294 -82.6506 336° Northwest 430 495 24,000  Level Atlanta Center
Tue 12:24:53 35.9383 -82.7128 335° Northwest 430 495 24,000  Level Atlanta Center
Tue 12:25:53 36.0497 -82.7778 335° Northwest 430 495 24,000  Level Atlanta Center
Tue 12:26:53 36.1608 -82.8403 336° Northwest 430 495 24,000  Level Atlanta Center
Tue 12:28:32 36.3458 -82.9442 336° Northwest 440 506 24,000  Level Indianapolis Center
Tue 12:29:33 36.4583 -83.0092 335° Northwest 442 509 24,000  Level Indianapolis Center
Tue 12:30:35 36.5717 -83.0733 336° Northwest 443 510 24,000  Level Indianapolis Center
Tue 12:31:36 36.6839 -83.1403 334° Northwest 438 504 24,000  Level Indianapolis Center
Tue 12:32:38 36.7961 -83.2050 335° Northwest 441 507 24,000  Level Indianapolis Center
Tue 12:33:39 36.9089 -83.2708 335° Northwest 441 507 24,000  Level Indianapolis Center
Tue 12:34:41 37.0208 -83.3361 335° Northwest 439 505 24,000  Level Indianapolis Center
Tue 12:35:42 37.1331 -83.4011 335° Northwest 440 506 24,000  Level Indianapolis Center
Tue 12:36:44 37.2425 -83.4675 334° Northwest 435 501 24,000  Level Indianapolis Center
Tue 12:37:45 37.3503 -83.5392 332° Northwest 435 501 24,000  Level Indianapolis Center
Tue 12:38:47 37.4753 -83.6206 333° Northwest 433 498 24,000  Level Indianapolis Center
Tue 12:39:48 37.5825 -83.6897 333° Northwest 433 498 24,000  Level Indianapolis Center
Tue 12:40:50 37.6894 -83.7606 332° Northwest 432 497 24,000  Level Indianapolis Center
Tue 12:41:51 37.7969 -83.8300 333° Northwest 431 496 24,000  Level Indianapolis Center
Tue 12:42:53 37.9042 -83.9003 333° Northwest 434 499 24,000  Level Indianapolis Center
Tue 12:43:54 38.0111 -83.9719 332° Northwest 432 497 24,000  Level Indianapolis Center
Tue 12:44:56 38.1194 -84.0411 333° Northwest 435 501 24,000  Level Indianapolis Center
Tue 12:45:58 38.2272 -84.1133 332° Northwest 436 502 24,000  Level Indianapolis Center
Tue 12:46:59 38.3522 -84.1969 332° Northwest 434 499 24,000  Level Indianapolis Center
Tue 12:48:01 38.4597 -84.2703 332° Northwest 436 502 24,000  Level Indianapolis Center
Tue 12:49:03 38.5683 -84.3431 332° Northwest 439 505 24,000  Level Indianapolis Center
Tue 12:50:04 38.6747 -84.4142 332° Northwest 436 502 24,000  Level Indianapolis Center
Tue 12:51:06 38.7850 -84.4883 332° Northwest 441 507 24,000  Level Indianapolis Center
Tue 12:52:07 38.8889 -84.5611 331° Northwest 432 497 24,000  Level Indianapolis Center
Tue 12:53:09 38.9994 -84.6344 333° Northwest 436 502 24,000  Level Indianapolis Center
Tue 12:54:11 39.1075 -84.7078 332° Northwest 433 498 24,000  Level Indianapolis Center
Tue 12:55:12 39.2158 -84.7828 332° Northwest 436 502 24,000  Level Indianapolis Center
Tue 12:56:14 39.3239 -84.8581 332° Northwest 437 503 24,000  Level Indianapolis Center
Tue 12:57:16 39.4486 -84.9439 332° Northwest 431 496 24,000  Level Indianapolis Center
Tue 12:58:17 39.5567 -85.0183 332° Northwest 435 501 24,000  Level Indianapolis Center
Tue 12:59:19 39.6647 -85.0928 332° Northwest 435 501 24,000  Level Indianapolis Center
Tue 13:00:21 39.7714 -85.1683 331° Northwest 431 496 24,000  Level Indianapolis Center
Tue 13:01:22 39.8806 -85.2447 332° Northwest 437 503 24,000  Level Indianapolis Center
Tue 13:02:24 39.9881 -85.3206 332° Northwest 435 501 24,000  Level Indianapolis Center
Tue 13:03:26 40.0956 -85.3964 332° Northwest 435 501 24,000  Level Indianapolis Center
Tue 13:04:27 40.2028 -85.4719 332° Northwest 434 499 24,000  Level Indianapolis Center
Tue 13:05:29 40.3086 -85.5472 332° Northwest 430 495 24,000  Level Indianapolis Center
Tue 13:06:31 40.4156 -85.6242 331° Northwest 432 497 24,000 -98 Level Indianapolis Center
Tue 13:07:32 40.5272 -85.6886 336° Northwest 434 499 23,800 -488 Descending Indianapolis Center
Tue 13:08:34 40.6500 -85.7453 341° North 404 465 23,000 -378 Descending Indianapolis Center
Tue 13:09:39 40.7397 -85.7847 342° North 379 436 23,000  Level Chicago Center
Tue 13:10:41 40.8478 -85.8806 326° Northwest 397 457 23,000 -439 Level Chicago Center
Tue 13:11:42 40.9269 -85.9828 316° Northwest 398 458 22,100 -1,024 Descending Chicago Center
Tue 13:12:44 41.0053 -86.0839 316° Northwest 394 453 20,900 -1,113 Descending Chicago Center
Tue 13:13:46 41.0822 -86.1844 315° West 389 448 19,800 -1,113 Descending Chicago Center
Tue 13:14:48 41.1583 -86.2850 315° West 385 443 18,600 -1,024 Descending Chicago Center
Tue 13:15:49 41.2336 -86.3836 315° West 381 438 17,700 -1,024 Descending Chicago Center
Tue 13:16:51 41.3086 -86.4808 316° Northwest 377 434 16,500 -1,113 Descending Chicago Center
Tue 13:17:53 41.3811 -86.5778 315° West 371 427 15,400 -1,161 Descending Chicago Center
Tue 13:18:55 41.4667 -86.6903 315° West 360 414 14,100 -1,171 Descending Chicago Center
Tue 13:19:56 41.5386 -86.7753 319° Northwest 340 391 13,000 -1,024 Descending Chicago Center
Tue 13:20:58 41.6400 -86.7936 352° North 365 420 12,000 -484 Descending Chicago Center
Tue 13:22:00 41.7400 -86.8042 355° North 364 419 12,000  Level Chicago Center
Tue 13:23:02 41.8378 -86.8239 351° North 361 415 12,000  Level Chicago Center
Tue 13:24:03 41.9136 -86.8847 329° Northwest 329 379 12,000 -439 Level Chicago Center
Tue 13:25:05 41.9600 -86.9833 302° West 310 357 11,100 -1,016 Descending Chicago Center
Tue 13:26:07 41.9878 -87.0917 289° West 271 312 9,900 -1,065 Descending Chicago Center
Tue 13:27:09 41.9792 -87.1844 263° West 253 291 8,900 -976 Descending Chicago Center
Tue 13:28:10 41.9847 -87.2764 275° West 249 287 7,900 -927 Descending Chicago Center
Tue 13:29:12 41.9828 -87.3678 268° West 246 283 7,000 -628 Descending Chicago Center
Tue 13:29:36 41.9833 -87.4167 271° West 243 280 7,000 -71 Level Chicago TRACON
Tue 13:30:36 41.9833 -87.5000 270° West 227 261 6,900 -730 Descending Chicago TRACON
Tue 13:31:31 41.9833 -87.5667 270° West 210 242 5,600 -1,357 Descending Chicago TRACON
Tue 13:32:31 41.9833 -87.6500 270° West 206 237 4,300 -1,190 Descending Chicago TRACON
Tue 13:33:37 41.9833 -87.7167 270° West 186 214 3,100 -1,000 Descending Chicago TRACON
Tue 13:34:37 41.9833 -87.7833 270° West 152 175 2,200 -750 Descending Chicago TRACON
Tue 13:35:37 41.9833 -87.8333 270° West 140 161 1,600 -600 Descending Chicago TRACON
Tue 13:38:00 41.9667 -87.9000 270° West  Level FlightAware Approximate

Login

Don't have an account? Register now (free) for customized features, flight alerts, and more!